Saturday, August 18, 2018, 3:17 AM EDT
Back to Local

KBED, Bedford Hanscom Field

Location: Concord, MA, United States Lat: 42.467
Local Time: 3:17 AM EDT ( 7:17 GMT) Lon: -71.3
Time Zone: US/Eastern Elev: 134 ft

Show me the last for .
Show Decoded

2018-08-18 02:56 METAR KBED 180656Z AUTO 21007KT 8SM -RA FEW110 23/22 A2982 RMK AO2 RAE20B41
                 SLP110 P0001 T02280217 =
2018-08-18 01:56 METAR KBED 180556Z AUTO 20004KT 6SM -RA BR FEW120 22/21 A2984 RMK AO2 SLP115
                 P0011 60016 T02220211 10244 20222 58022 =
2018-08-18 01:45 METAR KBED 180545Z AUTO 22004KT 9SM -RA FEW120 22/21 A2985 RMK AO2 LTG DSNT N
                 AND NE P0010 T02220206 =
2018-08-18 01:06 METAR KBED 180506Z AUTO 21010KT 4SM VCTS +RA BR FEW026 SCT050 BKN100 23/22 A2990
                 RMK AO2 LTG DSNT SW P0004 T02330217 =
2018-08-18 00:56 METAR KBED 180456Z AUTO 20005KT 4SM -RA BR SCT095 BKN120 23/22 A2988 RMK AO2 LTG
                 DSNT SW RAB05 SLP128 P0005 T02330217 403060172 =
2018-08-18 00:53 METAR KBED 180453Z AUTO 20005KT 4SM RA BR SCT095 BKN120 23/22 A2988 RMK AO2 LTG
                 DSNT SW RAB05 P0005 =
2018-08-18 00:20 METAR KBED 180420Z AUTO 22011KT 9SM VCTS -RA FEW021 BKN046 BKN055 24/22 A2991
                 RMK AO2 LTG DSNT SW AND NW RAB05 P0000 T02440217 =
2018-08-17 23:56 METAR KBED 180356Z AUTO 21007KT 10SM FEW065 BKN080 24/22 A2990 RMK AO2 LTG DSNT
                 SW AND W SLP135 T02440217 =
2018-08-17 22:56 METAR KBED 180256Z AUTO 20005KT 10SM FEW060 SCT100 BKN110 24/22 A2990 RMK AO2
                 RAB26E41 SLP137 P0000 60000 T02390217 58008 =
2018-08-17 21:56 METAR KBED 180156Z 18005KT 10SM SCT075 OVC100 24/22 A2991 RMK AO2 PRESFR SLP139
                 T02440217 =
2018-08-17 20:56 METAR KBED 180056Z 20007KT 10SM OVC120 24/22 A2993 RMK AO2 SLP145 T02440217 =
2018-08-17 19:56 METAR KBED 172356Z 26003KT 8SM BKN130 22/21 A2993 RMK AO2 SLP145 60013 T02220211
                 10300 20222 56016 =
2018-08-17 18:56 METAR KBED 172256Z 11004KT 10SM SCT039 BKN080 23/21 A2993 RMK AO2 LTG DSNT E
                 RAB2157E26 TSE23E26 SLP147 P0011 T02330206 =
2018-08-17 18:29 METAR KBED 172229Z 11003KT 10SM FEW039 SCT046 BKN060 24/21 A2994 RMK AO2 LTG
                 DSNT E AND SE RAB2157E26 TSE23E26 P0011 T02390211 =
2018-08-17 17:56 METAR KBED 172156Z 12006KT 7SM TS SCT039 BKN050 26/19 A2996 RMK AO2 LTG DSNT SW
                 AND W RAB03E12 TSB47 SLP154 OCNL LTGIC TS OHD MOV NE P0002 T02560194 =
2018-08-17 17:47 METAR KBED 172147Z 09008KT 10SM TS SCT039 BKN050 26/19 A2996 RMK AO2 LTG DSNT SW
                 AND W RAB03E12 TSB47 P0000 T02560194 =
2018-08-17 16:56 METAR KBED 172056Z 04009KT 10SM SCT026 BKN048 26/21 A2998 RMK AO2 LTG DSNT NE
                 AND SE RAB27E40 TSE01B10E31 SLP161 P0000 60000 T02560206 55005 =
2018-08-17 16:37 METAR KBED 172037Z 02009KT 10SM VCTS -RA FEW026 SCT048 BKN075 26/21 A2998 RMK
                 AO2 LTG DSNT N AND NE RAB27 TSE01B10E31 P0000 T02560206 =
2018-08-17 16:16 METAR KBED 172016Z 11009KT 10SM TS CLR 26/20 A2996 RMK AO2 LTG DSNT W-N TSE01B10
                 T02610200 =
2018-08-17 16:07 METAR KBED 172007Z 11011KT 10SM VCTS FEW055 26/20 A2996 RMK AO2 LTG DSNT N AND
                 NW TSE01 T02610200 =
2018-08-17 15:56 METAR KBED 171956Z 10010KT 10SM TS SCT050CB BKN200 27/20 A2997 RMK AO2 LTG DSNT
                 NW TSB47 SLP159 VIS NW 2 1/2 OCNL LTGIC CB W MOV E T02670200 =
2018-08-17 15:51 METAR KBED 171951Z 09010KT 10SM TS SCT050CB BKN200 27/21 A2997 RMK AO2 LTG DSNT
                 W AND NW TSB47 VIS NW 2 1/2 OCNL LTGIC CB W MOV E =
2018-08-17 15:33 METAR KBED 171933Z 10010KT 10SM VCTS SCT050 SCT200 28/21 A2997 RMK AO2 LTG DSNT
                 W AND NW T02780206 =
2018-08-17 14:56 METAR KBED 171856Z 09010KT 10SM SCT050 SCT200 29/21 A2999 RMK AO2 LTG DSNT NW
                 SLP166 T02940211 =
2018-08-17 13:56 METAR KBED 171756Z 10004KT 10SM SCT250 29/20 A3002 RMK AO2 SLP175 T02940200
                 10306 20211 58020 =
2018-08-17 12:56 METAR KBED 171656Z 11007KT 10SM SCT250 30/19 A3004 RMK AO2 SLP182 T03000194 =
2018-08-17 11:56 METAR KBED 171556Z 14006KT 10SM SCT200 28/18 A3005 RMK AO2 SLP188 T02830183 =
2018-08-17 10:56 METAR KBED 171456Z 11003KT 10SM CLR 27/19 A3007 RMK AO2 SLP195 T02720189 56007 =
2018-08-17 09:56 METAR KBED 171356Z 04004KT 10SM CLR 25/18 A3008 RMK AO2 SLP197 T02500183 =
2018-08-17 08:56 METAR KBED 171256Z 09004KT 10SM CLR 23/17 A3009 RMK AO2 SLP199 T02280172 =
2018-08-17 07:56 METAR KBED 171156Z 36003KT 10SM CLR 21/17 A3010 RMK AO2 SLP202 T02110172 10211
                 20172 50004 =
2018-08-17 06:56 METAR KBED 171056Z 00000KT 10SM FEW250 18/17 A3010 RMK AO2 SLP203 T01830167 =
2018-08-17 05:56 METAR KBED 170956Z AUTO 00000KT 10SM CLR 18/17 A3009 RMK AO2 SLP200 T01780167 =
2018-08-17 04:56 METAR KBED 170856Z AUTO 00000KT 10SM CLR 18/16 A3009 RMK AO2 SLP198 T01780161
                 53004 =
2018-08-17 03:56 METAR KBED 170756Z AUTO 00000KT 10SM CLR 19/17 A3008 RMK AO2 SLP196 T01890172 =

Support USWX by starting your Amazon purchase here.